sensor_id;sensor_type;location;lat;lon;timestamp;temperature;humidity
16838;DHT22;19510;54.486;9.046;2022-08-21T02:03:22;17.00;99.90
16838;DHT22;19510;54.486;9.046;2022-08-21T02:05:47;17.00;99.90
16838;DHT22;19510;54.486;9.046;2022-08-21T02:08:13;17.10;99.90
16838;DHT22;19510;54.486;9.046;2022-08-21T02:10:39;17.10;99.90
16838;DHT22;19510;54.486;9.046;2022-08-21T02:13:06;17.10;99.90
16838;DHT22;19510;54.486;9.046;2022-08-21T02:15:33;17.10;99.90
16838;DHT22;19510;54.486;9.046;2022-08-21T02:18:00;17.10;99.90
16838;DHT22;19510;54.486;9.046;2022-08-21T02:20:31;17.10;99.90
16838;DHT22;19510;54.486;9.046;2022-08-21T02:22:58;17.10;99.90
16838;DHT22;19510;54.486;9.046;2022-08-21T02:25:25;17.00;99.90
16838;DHT22;19510;54.486;9.046;2022-08-21T02:27:51;16.90;99.90
16838;DHT22;19510;54.486;9.046;2022-08-21T02:30:25;16.90;99.90
16838;DHT22;19510;54.486;9.046;2022-08-21T02:32:51;16.90;99.90
16838;DHT22;19510;54.486;9.046;2022-08-21T02:35:16;17.00;99.90
16838;DHT22;19510;54.486;9.046;2022-08-21T02:37:46;17.00;99.90
16838;DHT22;19510;54.486;9.046;2022-08-21T02:40:14;17.00;99.90
16838;DHT22;19510;54.486;9.046;2022-08-21T02:42:40;17.00;99.90
16838;DHT22;19510;54.486;9.046;2022-08-21T02:45:07;17.00;99.90
16838;DHT22;19510;54.486;9.046;2022-08-21T02:47:32;17.00;99.90
16838;DHT22;19510;54.486;9.046;2022-08-21T02:49:58;17.00;99.90
16838;DHT22;19510;54.486;9.046;2022-08-21T02:52:24;16.90;99.90
16838;DHT22;19510;54.486;9.046;2022-08-21T02:54:50;17.00;99.90
16838;DHT22;19510;54.486;9.046;2022-08-21T02:57:16;16.90;99.90
16838;DHT22;19510;54.486;9.046;2022-08-21T02:59:41;16.90;99.90
16838;DHT22;19510;54.486;9.046;2022-08-21T03:02:07;16.90;99.90
16838;DHT22;19510;54.486;9.046;2022-08-21T03:04:33;16.90;99.90
16838;DHT22;19510;54.486;9.046;2022-08-21T03:06:59;16.80;99.90
16838;DHT22;19510;54.486;9.046;2022-08-21T03:09:25;16.90;99.90
16838;DHT22;19510;54.486;9.046;2022-08-21T03:11:51;16.90;99.90
16838;DHT22;19510;54.486;9.046;2022-08-21T03:14:17;16.90;99.90
16838;DHT22;19510;54.486;9.046;2022-08-21T03:16:44;16.90;99.90
16838;DHT22;19510;54.486;9.046;2022-08-21T03:19:09;16.90;99.90
16838;DHT22;19510;54.486;9.046;2022-08-21T03:21:35;16.80;99.90
16838;DHT22;19510;54.486;9.046;2022-08-21T03:24:01;16.90;99.90
16838;DHT22;19510;54.486;9.046;2022-08-21T03:26:27;16.90;99.90
16838;DHT22;19510;54.486;9.046;2022-08-21T03:28:52;16.90;99.90
16838;DHT22;19510;54.486;9.046;2022-08-21T03:31:18;16.90;99.90
16838;DHT22;19510;54.486;9.046;2022-08-21T03:33:44;16.80;99.90
16838;DHT22;19510;54.486;9.046;2022-08-21T03:36:10;16.80;99.90
16838;DHT22;19510;54.486;9.046;2022-08-21T03:38:37;16.80;99.90
16838;DHT22;19510;54.486;9.046;2022-08-21T03:41:06;16.80;99.90
16838;DHT22;19510;54.486;9.046;2022-08-21T03:43:32;16.80;99.90
16838;DHT22;19510;54.486;9.046;2022-08-21T03:46:01;16.80;99.90
16838;DHT22;19510;54.486;9.046;2022-08-21T03:48:27;16.80;99.90
16838;DHT22;19510;54.486;9.046;2022-08-21T03:50:53;16.80;99.90
16838;DHT22;19510;54.486;9.046;2022-08-21T03:53:19;16.70;99.90
16838;DHT22;19510;54.486;9.046;2022-08-21T03:55:47;16.70;99.90
16838;DHT22;19510;54.486;9.046;2022-08-21T03:58:15;16.70;99.90
16838;DHT22;19510;54.486;9.046;2022-08-21T04:00:41;16.60;99.90
16838;DHT22;19510;54.486;9.046;2022-08-21T04:03:07;16.70;99.90
16838;DHT22;19510;54.486;9.046;2022-08-21T04:05:33;16.60;99.90
16838;DHT22;19510;54.486;9.046;2022-08-21T04:08:01;16.60;99.90
16838;DHT22;19510;54.486;9.046;2022-08-21T04:10:30;16.70;99.90
16838;DHT22;19510;54.486;9.046;2022-08-21T04:12:56;16.60;99.90
16838;DHT22;19510;54.486;9.046;2022-08-21T04:15:23;16.50;99.90
16838;DHT22;19510;54.486;9.046;2022-08-21T04:17:49;16.50;99.90
16838;DHT22;19510;54.486;9.046;2022-08-21T04:20:16;16.50;99.90
16838;DHT22;19510;54.486;9.046;2022-08-21T04:22:42;16.40;99.90
16838;DHT22;19510;54.486;9.046;2022-08-21T04:25:10;16.40;99.90
16838;DHT22;19510;54.486;9.046;2022-08-21T04:27:35;16.40;99.90
16838;DHT22;19510;54.486;9.046;2022-08-21T04:30:01;16.40;99.90
16838;DHT22;19510;54.486;9.046;2022-08-21T04:32:27;16.40;99.90
16838;DHT22;19510;54.486;9.046;2022-08-21T04:35:05;16.30;99.90
16838;DHT22;19510;54.486;9.046;2022-08-21T04:37:32;16.40;99.90
16838;DHT22;19510;54.486;9.046;2022-08-21T04:39:57;16.30;99.90
16838;DHT22;19510;54.486;9.046;2022-08-21T04:42:27;16.30;99.90
16838;DHT22;19510;54.486;9.046;2022-08-21T04:44:54;16.30;99.90
16838;DHT22;19510;54.486;9.046;2022-08-21T04:47:20;16.30;99.90
16838;DHT22;19510;54.486;9.046;2022-08-21T04:49:46;16.30;99.90
16838;DHT22;19510;54.486;9.046;2022-08-21T04:52:15;16.30;99.90
16838;DHT22;19510;54.486;9.046;2022-08-21T04:54:43;16.40;99.90
16838;DHT22;19510;54.486;9.046;2022-08-21T04:57:10;16.40;99.90
16838;DHT22;19510;54.486;9.046;2022-08-21T04:59:39;16.40;99.90
16838;DHT22;19510;54.486;9.046;2022-08-21T05:02:07;16.50;99.90
16838;DHT22;19510;54.486;9.046;2022-08-21T05:04:37;16.50;99.90
16838;DHT22;19510;54.486;9.046;2022-08-21T05:07:07;16.50;99.90
16838;DHT22;19510;54.486;9.046;2022-08-21T05:09:37;16.50;99.90
16838;DHT22;19510;54.486;9.046;2022-08-21T05:12:03;16.50;99.90
16838;DHT22;19510;54.486;9.046;2022-08-21T05:14:29;16.60;99.90
16838;DHT22;19510;54.486;9.046;2022-08-21T05:16:55;16.70;99.90
16838;DHT22;19510;54.486;9.046;2022-08-21T05:19:21;16.60;99.90
16838;DHT22;19510;54.486;9.046;2022-08-21T05:21:47;16.70;99.90
16838;DHT22;19510;54.486;9.046;2022-08-21T05:24:13;16.70;99.90
16838;DHT22;19510;54.486;9.046;2022-08-21T05:26:39;16.70;99.90
16838;DHT22;19510;54.486;9.046;2022-08-21T05:29:05;16.70;99.90
16838;DHT22;19510;54.486;9.046;2022-08-21T05:31:31;16.80;99.90
16838;DHT22;19510;54.486;9.046;2022-08-21T05:33:57;16.80;99.90
16838;DHT22;19510;54.486;9.046;2022-08-21T05:36:23;16.90;99.90
16838;DHT22;19510;54.486;9.046;2022-08-21T05:38:49;16.90;99.90
16838;DHT22;19510;54.486;9.046;2022-08-21T05:41:15;16.90;99.90
16838;DHT22;19510;54.486;9.046;2022-08-21T05:43:41;16.90;99.90
16838;DHT22;19510;54.486;9.046;2022-08-21T05:46:07;16.90;99.90
16838;DHT22;19510;54.486;9.046;2022-08-21T05:48:35;16.90;99.90
16838;DHT22;19510;54.486;9.046;2022-08-21T05:51:06;16.90;99.90
16838;DHT22;19510;54.486;9.046;2022-08-21T05:53:33;17.00;99.90
16838;DHT22;19510;54.486;9.046;2022-08-21T05:55:59;17.00;99.90
16838;DHT22;19510;54.486;9.046;2022-08-21T05:58:27;17.00;99.90
16838;DHT22;19510;54.486;9.046;2022-08-21T06:00:53;17.10;99.90
16838;DHT22;19510;54.486;9.046;2022-08-21T06:03:25;17.10;99.90
16838;DHT22;19510;54.486;9.046;2022-08-21T06:05:52;17.20;99.90
16838;DHT22;19510;54.486;9.046;2022-08-21T06:08:19;17.20;99.90
16838;DHT22;19510;54.486;9.046;2022-08-21T06:10:46;17.20;99.90
16838;DHT22;19510;54.486;9.046;2022-08-21T06:13:15;17.20;99.90
16838;DHT22;19510;54.486;9.046;2022-08-21T06:15:41;17.20;99.90
16838;DHT22;19510;54.486;9.046;2022-08-21T06:18:07;17.20;99.90
16838;DHT22;19510;54.486;9.046;2022-08-21T06:20:33;17.30;99.90
16838;DHT22;19510;54.486;9.046;2022-08-21T06:22:59;17.30;99.90
16838;DHT22;19510;54.486;9.046;2022-08-21T06:25:25;17.30;99.90
16838;DHT22;19510;54.486;9.046;2022-08-21T06:30:59;17.50;99.90
16838;DHT22;19510;54.486;9.046;2022-08-21T06:33:25;17.50;99.90
16838;DHT22;19510;54.486;9.046;2022-08-21T06:35:50;17.50;99.90
16838;DHT22;19510;54.486;9.046;2022-08-21T06:38:19;17.60;99.90
16838;DHT22;19510;54.486;9.046;2022-08-21T06:40:50;17.60;99.90
16838;DHT22;19510;54.486;9.046;2022-08-21T06:43:18;17.70;99.90
16838;DHT22;19510;54.486;9.046;2022-08-21T06:45:44;17.80;99.90
16838;DHT22;19510;54.486;9.046;2022-08-21T06:48:10;17.80;99.90
16838;DHT22;19510;54.486;9.046;2022-08-21T06:50:36;17.90;99.90
16838;DHT22;19510;54.486;9.046;2022-08-21T06:53:07;18.00;99.90
16838;DHT22;19510;54.486;9.046;2022-08-21T06:55:33;18.00;99.90
16838;DHT22;19510;54.486;9.046;2022-08-21T06:57:59;18.10;99.90
16838;DHT22;19510;54.486;9.046;2022-08-21T07:00:25;18.10;99.90
16838;DHT22;19510;54.486;9.046;2022-08-21T07:02:51;18.20;99.90
16838;DHT22;19510;54.486;9.046;2022-08-21T07:05:17;18.30;99.90
16838;DHT22;19510;54.486;9.046;2022-08-21T07:07:43;18.30;99.90
16838;DHT22;19510;54.486;9.046;2022-08-21T07:10:11;18.40;99.90
16838;DHT22;19510;54.486;9.046;2022-08-21T07:12:41;18.50;99.90
16838;DHT22;19510;54.486;9.046;2022-08-21T07:15:07;18.50;99.90
16838;DHT22;19510;54.486;9.046;2022-08-21T07:17:33;18.60;99.90
16838;DHT22;19510;54.486;9.046;2022-08-21T07:20:02;18.70;99.90
16838;DHT22;19510;54.486;9.046;2022-08-21T07:22:28;18.70;99.90
16838;DHT22;19510;54.486;9.046;2022-08-21T07:24:54;18.80;99.90
16838;DHT22;19510;54.486;9.046;2022-08-21T07:27:20;18.90;99.90
16838;DHT22;19510;54.486;9.046;2022-08-21T07:29:46;19.00;99.90
16838;DHT22;19510;54.486;9.046;2022-08-21T07:32:14;19.00;99.90
16838;DHT22;19510;54.486;9.046;2022-08-21T07:34:40;19.10;99.90
16838;DHT22;19510;54.486;9.046;2022-08-21T07:37:06;19.10;99.90
16838;DHT22;19510;54.486;9.046;2022-08-21T07:39:32;19.20;99.90
16838;DHT22;19510;54.486;9.046;2022-08-21T07:41:58;19.30;99.90
16838;DHT22;19510;54.486;9.046;2022-08-21T07:44:23;19.40;99.90
16838;DHT22;19510;54.486;9.046;2022-08-21T07:46:49;19.40;99.90
16838;DHT22;19510;54.486;9.046;2022-08-21T07:49:15;19.50;99.90
16838;DHT22;19510;54.486;9.046;2022-08-21T07:51:40;19.60;99.90
16838;DHT22;19510;54.486;9.046;2022-08-21T07:54:07;19.70;99.90
16838;DHT22;19510;54.486;9.046;2022-08-21T07:56:33;19.80;99.90
16838;DHT22;19510;54.486;9.046;2022-08-21T07:58:59;19.90;99.90
16838;DHT22;19510;54.486;9.046;2022-08-21T08:01:26;20.10;99.90
16838;DHT22;19510;54.486;9.046;2022-08-21T08:03:52;20.20;99.90
16838;DHT22;19510;54.486;9.046;2022-08-21T08:06:17;20.30;99.90
16838;DHT22;19510;54.486;9.046;2022-08-21T08:08:44;20.40;99.90
16838;DHT22;19510;54.486;9.046;2022-08-21T08:11:11;20.40;99.90
16838;DHT22;19510;54.486;9.046;2022-08-21T08:13:47;20.40;99.90
16838;DHT22;19510;54.486;9.046;2022-08-21T08:16:14;20.50;99.90
16838;DHT22;19510;54.486;9.046;2022-08-21T08:18:40;20.60;99.90
16838;DHT22;19510;54.486;9.046;2022-08-21T08:21:07;20.70;99.90
16838;DHT22;19510;54.486;9.046;2022-08-21T08:23:33;20.70;99.90
16838;DHT22;19510;54.486;9.046;2022-08-21T08:25:59;20.80;99.90
16838;DHT22;19510;54.486;9.046;2022-08-21T08:28:28;20.80;99.90
16838;DHT22;19510;54.486;9.046;2022-08-21T08:30:54;20.80;99.90
16838;DHT22;19510;54.486;9.046;2022-08-21T08:33:23;20.90;99.90
16838;DHT22;19510;54.486;9.046;2022-08-21T08:35:50;20.90;99.90
16838;DHT22;19510;54.486;9.046;2022-08-21T08:38:18;20.90;99.90
16838;DHT22;19510;54.486;9.046;2022-08-21T08:43:37;21.10;99.90
16838;DHT22;19510;54.486;9.046;2022-08-21T08:46:12;21.20;99.90
